TimeEDT,TemperatureF,Dew PointF,Humidity,Sea Level PressureIn,VisibilityMPH,Wind Direction,Wind SpeedMPH,Gust SpeedMPH,PrecipitationIn,Events,Conditions,WindDirDegrees,DateUTC
12:51 AM,39.9,39.0,97,30.13,10.0,Calm,Calm,-,N/A,,Clear,0,2012-09-24 04:51:00
1:51 AM,39.0,37.9,96,30.13,10.0,Calm,Calm,-,N/A,,Clear,0,2012-09-24 05:51:00
2:51 AM,37.9,37.0,97,30.13,10.0,South,3.5,-,N/A,,Clear,170,2012-09-24 06:51:00
3:38 AM,37.4,37.4,100,30.11,2.5,Calm,Calm,-,N/A,,Scattered Clouds,0,2012-09-24 07:38:00
3:40 AM,37.4,37.4,100,30.11,1.2,Calm,Calm,-,N/A,,Scattered Clouds,0,2012-09-24 07:40:00
3:44 AM,37.4,37.4,100,30.11,0.5,Calm,Calm,-,N/A,Fog,Fog,0,2012-09-24 07:44:00
3:51 AM,39.0,39.0,100,30.13,0.2,Calm,Calm,-,N/A,Fog,Fog,0,2012-09-24 07:51:00
4:04 AM,37.4,37.4,100,30.11,1.2,Calm,Calm,-,N/A,,Mostly Cloudy,0,2012-09-24 08:04:00
4:06 AM,37.4,37.4,100,30.12,3.0,Calm,Calm,-,N/A,,Mostly Cloudy,0,2012-09-24 08:06:00
4:10 AM,37.4,37.4,100,30.12,1.5,Calm,Calm,-,N/A,,Mostly Cloudy,0,2012-09-24 08:10:00
4:12 AM,39.2,37.4,93,30.12,1.0,Calm,Calm,-,N/A,,Mostly Cloudy,0,2012-09-24 08:12:00
4:19 AM,39.2,39.2,100,30.12,0.5,Calm,Calm,-,N/A,Fog,Fog,0,2012-09-24 08:19:00
4:28 AM,37.4,37.4,100,30.12,1.5,Calm,Calm,-,N/A,,Overcast,0,2012-09-24 08:28:00
4:30 AM,37.4,37.4,100,30.12,4.0,Variable,3.5,-,N/A,,Overcast,0,2012-09-24 08:30:00
4:51 AM,37.9,37.9,100,30.14,2.0,Calm,Calm,-,N/A,,Overcast,0,2012-09-24 08:51:00
4:53 AM,37.4,37.4,100,30.12,1.2,Calm,Calm,-,N/A,,Overcast,0,2012-09-24 08:53:00
4:56 AM,37.4,37.4,100,30.12,0.8,Calm,Calm,-,N/A,,Overcast,0,2012-09-24 08:56:00
5:51 AM,37.9,37.9,100,30.15,0.2,ENE,3.5,-,N/A,Fog,Fog,70,2012-09-24 09:51:00
6:51 AM,37.0,37.0,100,30.17,0.2,Calm,Calm,-,N/A,Fog,Fog,0,2012-09-24 10:51:00
7:51 AM,37.0,37.0,100,30.18,0.2,Calm,Calm,-,N/A,Fog,Fog,0,2012-09-24 11:51:00
8:20 AM,39.2,39.2,100,30.15,1.2,Calm,Calm,-,N/A,,Overcast,0,2012-09-24 12:20:00
8:26 AM,39.2,39.2,100,30.15,0.8,Calm,Calm,-,N/A,,Mist,0,2012-09-24 12:26:00
8:51 AM,39.9,39.9,100,30.18,0.2,Calm,Calm,-,N/A,Fog,Fog,0,2012-09-24 12:51:00
8:58 AM,41.0,41.0,100,30.16,1.8,Calm,Calm,-,N/A,,Overcast,0,2012-09-24 12:58:00
9:01 AM,41.0,41.0,100,30.16,3.0,Calm,Calm,-,N/A,,Overcast,0,2012-09-24 13:01:00
9:09 AM,42.8,42.8,100,30.16,2.5,Calm,Calm,-,N/A,,Overcast,0,2012-09-24 13:09:00
9:16 AM,42.8,42.8,100,30.16,7.0,Calm,Calm,-,N/A,,Mostly Cloudy,0,2012-09-24 13:16:00
9:29 AM,44.6,44.6,100,30.15,10.0,Calm,Calm,-,N/A,,Scattered Clouds,0,2012-09-24 13:29:00
9:51 AM,46.0,45.0,96,30.18,10.0,Calm,Calm,-,N/A,,Mostly Cloudy,0,2012-09-24 13:51:00
10:51 AM,51.1,44.1,77,30.16,10.0,Calm,Calm,-,N/A,,Overcast,0,2012-09-24 14:51:00
11:51 AM,53.1,43.0,69,30.15,10.0,Calm,Calm,-,N/A,,Mostly Cloudy,0,2012-09-24 15:51:00
12:51 PM,55.9,42.1,60,30.14,10.0,NNW,4.6,-,N/A,,Overcast,330,2012-09-24 16:51:00
1:51 PM,57.0,37.9,49,30.11,10.0,NNW,3.5,-,N/A,,Overcast,340,2012-09-24 17:51:00
2:51 PM,57.0,37.0,47,30.10,10.0,WSW,8.1,-,N/A,,Overcast,240,2012-09-24 18:51:00
3:51 PM,57.9,39.0,49,30.09,10.0,WNW,8.1,-,N/A,,Mostly Cloudy,290,2012-09-24 19:51:00
4:51 PM,55.9,41.0,57,30.09,10.0,SW,8.1,-,N/A,,Mostly Cloudy,230,2012-09-24 20:51:00
5:51 PM,55.0,39.0,55,30.09,10.0,SW,4.6,-,N/A,,Clear,220,2012-09-24 21:51:00
6:51 PM,48.0,41.0,77,30.09,10.0,SSW,5.8,-,N/A,,Clear,200,2012-09-24 22:51:00
7:51 PM,46.0,39.9,79,30.10,10.0,Calm,Calm,-,N/A,,Clear,0,2012-09-24 23:51:00
8:51 PM,46.4,39.2,76,30.07,10.0,Variable,5.8,-,N/A,,Clear,0,2012-09-25 00:51:00
9:51 PM,45.0,37.9,76,30.10,10.0,Calm,Calm,-,N/A,,Clear,0,2012-09-25 01:51:00
10:51 PM,42.1,37.9,85,30.10,10.0,Calm,Calm,-,N/A,,Clear,0,2012-09-25 02:51:00
11:51 PM,42.1,39.0,89,30.11,10.0,Calm,Calm,-,N/A,,Clear,0,2012-09-25 03:51:00